GUCY Airport Information

Runway Information
Runway 06 Length 10826 ft width 148 ft
Elevation 69 ft Threshold 0 ft Heading 49
Runway 24 Length 10826 ft Width 148 ft
Elevation 52 ft Threshold 0 ft Heading 229
Airport Frequencies
Type A/G Name AIR GND Frequency 658.9 MHZ
Type APP Name APP Frequency 119.7 MHZ
Type GND Name GND Frequency 129.1 MHZ
Type TWR Name TWR Frequency 118.7 MHZ
Airport Navaids
Type NDB Name Conakry Frequency 395 KHZ
Type VOR-DME Name Conakry Frequency 114900 KHZ
Type NDB Name Conakry Frequency 365 KHZ
Airport Weather Information & NOTAM
ADDS - METARS form results

(2024 UTC 22 July 2018)
 
METAR text: GUCY 222000Z 18010KT 7000 -RA BKN013 BKN100 25/23 Q1013 NOSIG
Conditions at: GUCY (CONAKRY/GBESSIA , GN) observed 2000 UTC 22 July 2018
Temperature: 25.0°C (77°F)
Dewpoint: 23.0°C (73°F) [RH = 89%]
Pressure (altimeter): 29.91 inches Hg (1013.0 mb)
Winds: from the S (180 degrees) at 12 MPH (10 knots; 5.2 m/s)
Visibility: 4 miles (7 km)
Ceiling: 1300 feet AGL
Clouds: broken clouds at 1300 feet AGL
broken clouds at 10000 feet AGL
Weather: -RA  (light rain)